Time;durP1;ratioP1;P1;durP2;ratioP2;P2;SDS_P1;SDS_P2;PMS_P1;PMS_P2;Temp;Humidity;BMP_temperature;BMP_pressure;BME280_temperature;BME280_humidity;BME280_pressure;Samples;Min_cycle;Max_cycle;Signal;HPM_P1;HPM_P2
2022/08/05 00:00:54;;;;;;;4.80;2.63;;;18.50;99.90;;;;;;4842660;29;20376;-65
2022/08/05 00:03:19;;;;;;;5.75;2.90;;;19.20;99.90;;;;;;4820541;29;20453;-66
2022/08/05 00:05:45;;;;;;;3.53;2.22;;;18.60;99.90;;;;;;4838006;29;20092;-65
2022/08/05 00:08:10;;;;;;;5.50;2.60;;;18.60;99.90;;;;;;4819389;29;20056;-65
2022/08/05 00:10:36;;;;;;;5.60;2.67;;;18.50;99.90;;;;;;4818865;29;20062;-65
2022/08/05 00:13:01;;;;;;;6.43;2.40;;;18.50;99.90;;;;;;4806111;29;20059;-66
2022/08/05 00:15:27;;;;;;;3.72;2.20;;;18.50;99.90;;;;;;4834555;29;20094;-66
2022/08/05 00:17:53;;;;;;;4.25;2.50;;;18.50;99.90;;;;;;4835080;29;20356;-66
2022/08/05 00:20:18;;;;;;;5.43;2.58;;;18.50;99.90;;;;;;4836784;29;20088;-67
2022/08/05 00:22:44;;;;;;;6.93;3.08;;;18.50;99.90;;;;;;4829221;29;20137;-66
2022/08/05 00:25:09;;;;;;;5.75;2.90;;;18.50;99.90;;;;;;4825012;29;20465;-67
2022/08/05 00:27:35;;;;;;;4.15;2.70;;;18.40;99.90;;;;;;4825264;29;20469;-67
2022/08/05 00:30:01;;;;;;;4.53;2.55;;;18.40;99.90;;;;;;4824226;29;20102;-66
2022/08/05 00:32:26;;;;;;;5.90;2.65;;;18.40;99.90;;;;;;4822129;29;21647;-66
2022/08/05 00:34:52;;;;;;;3.17;2.40;;;18.40;99.90;;;;;;4820914;29;20400;-66
2022/08/05 00:37:18;;;;;;;5.00;2.92;;;18.40;99.90;;;;;;4823067;29;20073;-65
2022/08/05 00:39:43;;;;;;;4.88;2.60;;;18.40;99.90;;;;;;4822430;29;20125;-65
2022/08/05 00:42:09;;;;;;;7.03;2.80;;;18.50;99.90;;;;;;4819579;29;20118;-66
2022/08/05 00:44:34;;;;;;;4.53;2.60;;;18.50;99.90;;;;;;4824332;29;20887;-66
2022/08/05 00:47:00;;;;;;;5.15;3.10;;;18.50;99.90;;;;;;4823902;29;20472;-65
2022/08/05 00:49:25;;;;;;;6.15;2.85;;;18.50;99.90;;;;;;4824104;29;20050;-66
2022/08/05 00:51:51;;;;;;;4.05;2.70;;;18.50;99.90;;;;;;4824414;29;20151;-65
2022/08/05 00:54:17;;;;;;;6.35;2.63;;;18.50;99.90;;;;;;4824047;29;20093;-65
2022/08/05 00:56:42;;;;;;;4.88;2.42;;;18.50;99.90;;;;;;4839357;29;20061;-65
2022/08/05 00:59:08;;;;;;;5.43;2.60;;;18.50;99.90;;;;;;4827374;29;20141;-65
2022/08/05 01:01:33;;;;;;;6.15;2.65;;;18.60;99.90;;;;;;4835287;29;20444;-65
2022/08/05 01:03:59;;;;;;;6.07;2.83;;;18.50;99.90;;;;;;4826702;29;20073;-65
2022/08/05 01:06:24;;;;;;;2.53;2.33;;;18.50;99.90;;;;;;4831822;29;20110;-65
2022/08/05 01:08:50;;;;;;;3.47;2.42;;;18.60;99.90;;;;;;4843283;29;20054;-65
2022/08/05 01:11:31;;;;;;;6.22;2.60;;;18.50;99.90;;;;;;4839320;29;20058;-65
2022/08/05 01:14:27;;;;;;;3.40;1.98;;;18.50;99.90;;;;;;4834631;29;20104;-65
2022/08/05 01:17:05;;;;;;;6.50;2.75;;;18.60;99.90;;;;;;4841801;29;20069;-65
2022/08/05 01:19:39;;;;;;;4.88;2.22;;;18.50;99.90;;;;;;4824509;29;20061;-65
2022/08/05 01:22:40;;;;;;;3.95;2.70;;;19.50;99.90;;;;;;4836105;29;20061;-65
2022/08/05 01:25:41;;;;;;;4.93;2.33;;;18.60;99.90;;;;;;4807593;29;20112;-66
2022/08/05 01:28:06;;;;;;;3.65;2.30;;;18.60;99.90;;;;;;4834420;29;20088;-66
2022/08/05 01:30:38;;;;;;;4.57;2.20;;;18.50;99.90;;;;;;4827073;29;20096;-66
2022/08/05 01:33:08;;;;;;;5.15;2.90;;;17.90;99.90;;;;;;4821461;29;20058;-66
2022/08/05 01:35:38;;;;;;;5.20;2.75;;;18.50;99.90;;;;;;4830873;29;20062;-66
2022/08/05 01:38:05;;;;;;;4.85;2.67;;;18.50;99.90;;;;;;4841198;29;20054;-66
2022/08/05 01:40:32;;;;;;;8.48;3.03;;;18.50;99.90;;;;;;4838342;29;20050;-66
2022/08/05 01:43:00;;;;;;;10.15;3.10;;;18.50;99.90;;;;;;4834043;29;20143;-66
2022/08/05 01:45:29;;;;;;;7.20;2.75;;;18.50;99.90;;;;;;4809480;29;20058;-66
2022/08/05 01:47:58;;;;;;;4.85;2.72;;;18.40;99.90;;;;;;4831463;29;20109;-66
2022/08/05 01:50:29;;;;;;;9.57;2.88;;;18.50;99.90;;;;;;4830059;29;20111;-66
2022/08/05 01:53:03;;;;;;;4.18;2.75;;;18.50;99.90;;;;;;4835904;29;20062;-66
2022/08/05 01:55:31;;;;;;;5.47;2.92;;;18.50;99.90;;;;;;4838944;29;20141;-66
2022/08/05 01:57:58;;;;;;;5.97;2.80;;;18.50;99.90;;;;;;4829484;29;20058;-66
2022/08/05 02:00:25;;;;;;;7.15;3.35;;;18.50;99.90;;;;;;4822329;29;20066;-66
2022/08/05 02:02:54;;;;;;;6.15;2.60;;;18.50;99.90;;;;;;4822304;29;20061;-66
2022/08/05 02:05:24;;;;;;;4.95;2.78;;;18.50;99.90;;;;;;4824067;29;20492;-66
2022/08/05 02:07:49;;;;;;;4.13;2.67;;;18.50;99.90;;;;;;4819824;29;20061;-66
2022/08/05 02:10:15;;;;;;;4.57;2.78;;;18.50;99.90;;;;;;4823295;29;20066;-66
2022/08/05 02:12:47;;;;;;;4.63;2.85;;;18.50;99.90;;;;;;4832552;29;20512;-66
2022/08/05 02:15:20;;;;;;;4.20;2.50;;;18.50;99.90;;;;;;4837817;29;20060;-66
2022/08/05 02:18:01;;;;;;;4.57;3.45;;;18.50;99.90;;;;;;4840110;29;20064;-66
2022/08/05 02:20:32;;;;;;;4.55;3.42;;;18.50;99.90;;;;;;4821775;29;20061;-65
2022/08/05 02:23:00;;;;;;;4.60;3.20;;;19.20;99.90;;;;;;4831389;29;20057;-66
2022/08/05 02:25:30;;;;;;;6.97;3.33;;;18.50;99.90;;;;;;4841079;29;20057;-66
2022/08/05 02:27:57;;;;;;;6.38;2.97;;;18.40;99.90;;;;;;4824094;29;20412;-66
2022/08/05 02:30:25;;;;;;;6.38;3.08;;;18.40;99.90;;;;;;4837556;29;20098;-65
2022/08/05 02:32:54;;;;;;;3.03;2.72;;;18.40;99.90;;;;;;4807735;29;20058;-66
2022/08/05 02:35:23;;;;;;;5.90;3.42;;;18.40;99.90;;;;;;4822084;29;20110;-66
2022/08/05 02:37:50;;;;;;;5.65;3.25;;;18.40;99.90;;;;;;4816717;29;20174;-66
2022/08/05 02:40:17;;;;;;;5.95;3.25;;;18.40;99.90;;;;;;4800498;29;20058;-67
2022/08/05 02:43:10;;;;;;;5.65;3.28;;;18.30;99.90;;;;;;4800723;29;20077;-67
2022/08/05 02:46:01;;;;;;;5.15;3.10;;;18.30;99.90;;;;;;4804065;29;20051;-66
2022/08/05 02:48:28;;;;;;;5.20;3.13;;;18.30;99.90;;;;;;4821446;29;20062;-66
2022/08/05 02:50:56;;;;;;;4.55;3.10;;;18.20;99.90;;;;;;4803005;29;20068;-67
2022/08/05 02:53:22;;;;;;;6.55;3.50;;;18.20;99.90;;;;;;4785402;29;20050;-67
2022/08/05 02:55:51;;;;;;;4.55;3.03;;;18.20;99.90;;;;;;4801082;29;20062;-67
2022/08/05 02:58:19;;;;;;;6.68;3.53;;;18.20;99.90;;;;;;4818550;29;20388;-66
2022/08/05 03:00:45;;;;;;;5.07;3.55;;;18.20;99.90;;;;;;4815587;29;20125;-66
2022/08/05 03:03:18;;;;;;;6.43;3.80;;;18.10;99.90;;;;;;4800524;29;20553;-67
2022/08/05 03:05:46;;;;;;;5.93;3.38;;;18.10;99.90;;;;;;4815843;29;20488;-66
2022/08/05 03:08:13;;;;;;;5.95;4.10;;;17.90;99.90;;;;;;4816559;29;20070;-67
2022/08/05 03:10:42;;;;;;;4.57;3.70;;;18.00;99.90;;;;;;4820399;29;20058;-66
2022/08/05 03:13:15;;;;;;;6.32;3.72;;;18.00;99.90;;;;;;4818611;29;20565;-66
2022/08/05 03:15:45;;;;;;;4.60;3.47;;;18.00;99.90;;;;;;4816918;29;20058;-67
2022/08/05 03:18:11;;;;;;;5.88;3.58;;;18.00;99.90;;;;;;4819610;29;20553;-67
2022/08/05 03:20:37;;;;;;;6.00;3.47;;;18.00;99.90;;;;;;4820079;29;20065;-67
2022/08/05 03:23:08;;;;;;;4.25;3.85;;;18.30;99.90;;;;;;4821489;29;20425;-66
2022/08/05 03:25:35;;;;;;;5.90;3.38;;;18.00;99.90;;;;;;4821000;29;20082;-67
2022/08/05 03:28:03;;;;;;;5.53;3.42;;;18.00;99.90;;;;;;4821236;29;20062;-67
2022/08/05 03:30:33;;;;;;;6.20;3.33;;;18.00;99.90;;;;;;4833858;29;20129;-67
2022/08/05 03:33:04;;;;;;;4.65;3.03;;;17.90;99.90;;;;;;4831550;29;20073;-67
2022/08/05 03:35:31;;;;;;;6.78;3.60;;;18.00;99.90;;;;;;4833700;29;20559;-67
2022/08/05 03:37:58;;;;;;;7.05;3.40;;;18.00;99.90;;;;;;4839941;29;20086;-67
2022/08/05 03:40:24;;;;;;;6.60;3.38;;;18.00;99.90;;;;;;4844437;29;20484;-67
2022/08/05 03:43:15;;;;;;;5.10;3.58;;;18.00;99.90;;;;;;4838371;29;20051;-67
2022/08/05 03:45:42;;;;;;;8.27;4.00;;;18.00;99.90;;;;;;4824789;29;20051;-66
2022/08/05 03:48:12;;;;;;;4.35;3.55;;;17.90;99.90;;;;;;4819136;29;20058;-67
2022/08/05 03:51:16;;;;;;;5.88;3.70;;;17.90;99.90;;;;;;4826080;29;20512;-67
2022/08/05 03:54:12;;;;;;;6.18;3.55;;;17.90;99.90;;;;;;4834898;29;20111;-67
2022/08/05 03:56:42;;;;;;;4.82;3.50;;;17.80;99.90;;;;;;4819583;29;20117;-67
2022/08/05 03:59:23;;;;;;;6.72;3.60;;;17.80;99.90;;;;;;4819305;29;20055;-67
2022/08/05 04:01:50;;;;;;;6.07;3.47;;;17.80;99.90;;;;;;4819569;29;20503;-67
2022/08/05 04:04:17;;;;;;;7.22;3.17;;;17.80;99.90;;;;;;4821176;29;20062;-67
2022/08/05 04:06:44;;;;;;;3.40;2.92;;;17.40;99.90;;;;;;4819931;29;20060;-66
2022/08/05 04:09:10;;;;;;;7.32;4.88;;;17.70;99.90;;;;;;4818573;29;20065;-67
2022/08/05 04:11:36;;;;;;;4.97;3.40;;;17.80;99.90;;;;;;4820203;29;20400;-67
2022/08/05 04:14:03;;;;;;;7.07;3.80;;;17.80;99.90;;;;;;4819530;29;20062;-69
2022/08/05 04:16:31;;;;;;;6.22;3.92;;;17.80;99.90;;;;;;4819844;29;20240;-67
2022/08/05 04:18:56;;;;;;;6.55;4.10;;;17.80;99.90;;;;;;4818733;29;20063;-67
2022/08/05 04:21:22;;;;;;;5.57;4.20;;;17.70;99.90;;;;;;4818173;29;20054;-66
2022/08/05 04:23:49;;;;;;;4.53;3.15;;;17.70;99.90;;;;;;4819898;29;20082;-68
2022/08/05 04:26:14;;;;;;;7.68;3.67;;;17.70;99.90;;;;;;4817713;29;20106;-67
2022/08/05 04:28:40;;;;;;;4.03;3.47;;;17.70;99.90;;;;;;4801683;29;20054;-64
2022/08/05 04:31:06;;;;;;;4.72;3.60;;;17.70;99.90;;;;;;4819199;29;20206;-64
2022/08/05 04:33:32;;;;;;;4.38;3.72;;;17.70;99.90;;;;;;4802987;29;20095;-66
2022/08/05 04:35:57;;;;;;;4.93;3.25;;;17.70;99.90;;;;;;4819248;29;20093;-64
2022/08/05 04:38:23;;;;;;;5.75;3.67;;;17.70;99.90;;;;;;4818654;29;20104;-67
2022/08/05 04:40:49;;;;;;;4.78;3.60;;;17.70;99.90;;;;;;4823484;29;20070;-67
2022/08/05 04:43:14;;;;;;;7.97;3.90;;;17.70;99.90;;;;;;4837402;29;20118;-67
2022/08/05 04:45:40;;;;;;;5.00;3.83;;;17.70;99.90;;;;;;4825190;29;20061;-67
2022/08/05 04:48:11;;;;;;;9.23;3.70;;;17.70;99.90;;;;;;4837928;29;20042;-67
2022/08/05 04:50:43;;;;;;;5.73;4.00;;;17.70;99.90;;;;;;4813142;29;20523;-68
2022/08/05 04:53:10;;;;;;;5.35;4.07;;;17.70;99.90;;;;;;4823416;29;20069;-67
2022/08/05 04:55:36;;;;;;;5.00;3.58;;;17.70;99.90;;;;;;4824636;29;20058;-67
2022/08/05 04:58:04;;;;;;;6.80;3.83;;;17.70;99.90;;;;;;4813995;29;20133;-67
2022/08/05 05:00:34;;;;;;;6.28;4.35;;;17.60;99.90;;;;;;4825190;29;20376;-66
2022/08/05 05:03:00;;;;;;;7.40;4.28;;;17.70;99.90;;;;;;4819458;29;20085;-67
2022/08/05 05:05:26;;;;;;;6.53;4.30;;;17.60;99.90;;;;;;4820360;29;20058;-67
2022/08/05 05:07:52;;;;;;;10.27;4.10;;;17.60;99.90;;;;;;4819810;29;20471;-67
2022/08/05 05:10:18;;;;;;;8.07;4.80;;;17.60;99.90;;;;;;4808313;29;20058;-67
2022/08/05 05:12:44;;;;;;;7.35;4.93;;;17.60;99.90;;;;;;4803282;29;20053;-67
2022/08/05 05:15:09;;;;;;;7.78;4.65;;;17.60;99.90;;;;;;4822897;29;20122;-66
2022/08/05 05:17:44;;;;;;;8.32;4.80;;;17.60;99.90;;;;;;4807465;29;20143;-67
2022/08/05 05:20:11;;;;;;;4.97;3.90;;;17.60;99.90;;;;;;4819577;29;20050;-68
2022/08/05 05:22:37;;;;;;;10.07;4.80;;;17.60;99.90;;;;;;4825767;29;20062;-66
2022/08/05 05:25:04;;;;;;;6.43;4.82;;;17.60;99.90;;;;;;4834595;29;20064;-67
2022/08/05 05:27:32;;;;;;;7.75;4.40;;;17.60;99.90;;;;;;4840252;29;20053;-67
2022/08/05 05:29:58;;;;;;;4.55;4.15;;;17.60;99.90;;;;;;4842087;29;20060;-67
2022/08/05 05:32:23;;;;;;;6.95;4.60;;;17.70;99.90;;;;;;4841303;29;20050;-67
2022/08/05 05:34:52;;;;;;;6.68;4.60;;;17.70;99.90;;;;;;4835924;29;20197;-66
2022/08/05 05:37:30;;;;;;;10.00;4.43;;;17.80;99.90;;;;;;4825648;29;20437;-66
2022/08/05 05:40:01;;;;;;;9.35;5.15;;;17.80;99.90;;;;;;4842364;29;20072;-66
2022/08/05 05:42:44;;;;;;;6.68;4.80;;;17.80;99.90;;;;;;4840589;29;20050;-67
2022/08/05 05:45:14;;;;;;;7.15;4.63;;;17.80;99.90;;;;;;4833821;29;20105;-67
2022/08/05 05:47:41;;;;;;;6.78;4.72;;;17.80;99.90;;;;;;4833708;29;20041;-68
2022/08/05 05:50:13;;;;;;;6.63;3.95;;;17.90;99.90;;;;;;4834492;29;20125;-67
2022/08/05 05:52:42;;;;;;;7.15;4.57;;;17.90;99.90;;;;;;4835644;29;20531;-67
2022/08/05 05:55:14;;;;;;;7.53;4.82;;;18.00;99.90;;;;;;4836424;29;20058;-65
2022/08/05 05:57:42;;;;;;;;;;;18.00;99.90;;;;;;4830707;29;20146;-66
2022/08/05 06:07:05;;;;;;;7.78;4.25;;;18.30;99.90;;;;;;4831134;29;20060;-66
2022/08/05 06:14:01;;;;;;;6.05;4.90;;;18.80;99.90;;;;;;4837571;29;20045;-67
2022/08/05 06:16:53;;;;;;;5.15;4.40;;;18.80;99.90;;;;;;4829925;29;20480;-66
2022/08/05 06:23:32;;;;;;;4.28;3.88;;;19.40;99.90;;;;;;4833844;29;20072;-65
2022/08/05 06:26:48;;;;;;;7.07;4.07;;;19.50;99.90;;;;;;4841753;29;20080;-65
2022/08/05 06:29:16;;;;;;;4.00;3.53;;;19.50;99.90;;;;;;4849207;29;20045;-66
2022/08/05 06:31:42;;;;;;;4.10;3.70;;;19.00;99.90;;;;;;4851331;29;20098;-65
2022/08/05 06:34:07;;;;;;;5.75;4.28;;;18.90;99.90;;;;;;4842145;29;20046;-65
2022/08/05 06:36:58;;;;;;;7.82;3.78;;;19.00;99.90;;;;;;4840970;29;20083;-65
2022/08/05 06:39:25;;;;;;;5.40;3.20;;;18.80;99.90;;;;;;4841799;29;20054;-64
2022/08/05 06:41:50;;;;;;;4.68;3.00;;;18.80;99.90;;;;;;4840710;29;20062;-65
2022/08/05 06:44:17;;;;;;;5.18;3.90;;;18.80;99.90;;;;;;4841182;29;20061;-65
2022/08/05 06:46:43;;;;;;;5.70;3.70;;;18.80;99.90;;;;;;4841027;29;20050;-65
2022/08/05 06:49:17;;;;;;;6.60;3.50;;;18.80;99.90;;;;;;4837616;29;20117;-66
2022/08/05 06:51:42;;;;;;;5.75;3.65;;;18.80;99.90;;;;;;4828177;29;21612;-65
2022/08/05 06:54:08;;;;;;;6.38;3.53;;;18.80;99.90;;;;;;4842719;29;20050;-66
2022/08/05 06:56:33;;;;;;;5.03;3.50;;;18.90;99.90;;;;;;4845353;29;20042;-66
2022/08/05 06:58:59;;;;;;;7.88;3.25;;;18.90;99.90;;;;;;4845180;29;20058;-65
2022/08/05 07:01:25;;;;;;;4.60;3.03;;;18.90;99.90;;;;;;4828597;29;20062;-65
2022/08/05 07:03:50;;;;;;;4.32;3.10;;;19.00;99.90;;;;;;4845451;29;20388;-65
2022/08/05 07:06:16;;;;;;;4.32;3.28;;;18.90;99.90;;;;;;4827979;29;20463;-65
2022/08/05 07:08:43;;;;;;;3.13;2.88;;;19.00;99.90;;;;;;4844954;29;20058;-67
2022/08/05 07:11:09;;;;;;;3.60;2.92;;;19.10;99.90;;;;;;4844688;29;20066;-65
2022/08/05 07:19:03;;;;;;;5.03;2.92;;;19.30;99.90;;;;;;4827988;29;20057;-66
2022/08/05 07:21:29;;;;;;;5.30;3.33;;;19.40;99.90;;;;;;4827911;29;20050;-66
2022/08/05 07:23:55;;;;;;;3.08;2.30;;;19.60;99.90;;;;;;4844196;29;20142;-66
2022/08/05 07:26:21;;;;;;;3.42;2.50;;;19.90;99.90;;;;;;4827978;29;20564;-66
2022/08/05 07:28:47;;;;;;;4.43;2.30;;;19.70;99.90;;;;;;4844945;29;20054;-67
2022/08/05 07:31:13;;;;;;;3.35;1.63;;;19.80;99.90;;;;;;4827311;29;20057;-67
2022/08/05 07:33:39;;;;;;;3.20;1.77;;;20.00;99.90;;;;;;4844846;29;20061;-67
2022/08/05 07:36:05;;;;;;;2.40;1.40;;;20.80;99.90;;;;;;4844501;29;20100;-67
2022/08/05 07:38:36;;;;;;;4.28;1.50;;;20.10;99.90;;;;;;4844234;29;20110;-67
2022/08/05 07:41:13;;;;;;;4.07;1.30;;;20.20;99.90;;;;;;4844359;29;20562;-66
2022/08/05 07:43:39;;;;;;;3.53;1.40;;;20.10;99.90;;;;;;4828376;29;20066;-66
2022/08/05 07:46:04;;;;;;;1.88;1.40;;;20.20;99.90;;;;;;4844115;29;20076;-66
2022/08/05 07:48:30;;;;;;;4.03;1.65;;;20.30;99.90;;;;;;4843937;29;20137;-66
2022/08/05 07:50:55;;;;;;;3.13;1.33;;;20.60;99.90;;;;;;4844279;29;20133;-67
2022/08/05 07:53:21;;;;;;;3.30;1.45;;;20.80;99.90;;;;;;4844591;29;20175;-67
2022/08/05 07:55:47;;;;;;;3.35;1.45;;;21.00;99.90;;;;;;4827797;29;20061;-65
2022/08/05 07:58:12;;;;;;;2.88;1.20;;;21.20;99.90;;;;;;4827707;29;20101;-65
2022/08/05 08:00:38;;;;;;;1.75;1.15;;;21.50;99.90;;;;;;4827545;29;20508;-66
2022/08/05 08:03:12;;;;;;;2.72;0.98;;;21.70;99.90;;;;;;4826001;29;20140;-65
2022/08/05 08:05:39;;;;;;;2.80;1.65;;;22.10;99.90;;;;;;4821331;29;20125;-65
2022/08/05 08:08:05;;;;;;;3.60;1.30;;;22.30;99.90;;;;;;4823837;29;20046;-66
2022/08/05 08:10:31;;;;;;;3.88;1.27;;;22.20;99.90;;;;;;4842900;29;20548;-66
2022/08/05 08:13:05;;;;;;;2.20;1.27;;;22.10;99.90;;;;;;4842380;29;20058;-66
2022/08/05 08:15:31;;;;;;;1.83;1.13;;;21.90;99.90;;;;;;4841866;29;20057;-66
2022/08/05 08:17:56;;;;;;;1.98;1.00;;;21.90;99.90;;;;;;4832903;29;20496;-64
2022/08/05 08:20:25;;;;;;;1.65;1.00;;;21.90;99.90;;;;;;4823807;29;20062;-66
2022/08/05 08:22:55;;;;;;;2.65;1.10;;;22.20;99.90;;;;;;4824807;29;20054;-65
2022/08/05 08:25:22;;;;;;;3.25;1.48;;;21.80;99.90;;;;;;4825453;29;20054;-66
2022/08/05 08:27:47;;;;;;;1.20;1.05;;;21.70;99.90;;;;;;4839335;29;20114;-65
2022/08/05 08:30:14;;;;;;;4.18;1.20;;;21.60;99.90;;;;;;4826727;29;20054;-66
2022/08/05 08:32:40;;;;;;;1.80;1.33;;;21.50;99.90;;;;;;4844178;29;20058;-66
2022/08/05 08:35:06;;;;;;;2.70;1.20;;;21.60;99.90;;;;;;4843585;29;20106;-65
2022/08/05 08:37:33;;;;;;;2.50;1.10;;;21.70;99.90;;;;;;4842727;29;20484;-65
2022/08/05 08:39:58;;;;;;;4.05;1.20;;;21.90;99.90;;;;;;4827357;29;20094;-65
2022/08/05 08:42:24;;;;;;;2.55;1.13;;;21.80;99.90;;;;;;4827149;29;20065;-65
2022/08/05 08:44:53;;;;;;;1.40;1.20;;;21.70;99.90;;;;;;4841437;29;20080;-66
2022/08/05 08:47:23;;;;;;;2.13;1.38;;;21.70;99.90;;;;;;4843821;29;20053;-65
2022/08/05 08:49:55;;;;;;;4.72;1.50;;;21.70;99.90;;;;;;4843443;29;20057;-66
2022/08/05 08:52:37;;;;;;;2.97;1.30;;;21.70;99.90;;;;;;4842383;29;20057;-66
2022/08/05 08:55:03;;;;;;;;;;;21.60;99.90;;;;;;4844123;29;20484;-65
2022/08/05 08:57:32;;;;;;;3.85;0.95;;;21.70;99.90;;;;;;4842217;29;19928;-65
2022/08/05 08:59:58;;;;;;;1.63;1.10;;;21.80;99.90;;;;;;4826794;29;20507;-66
2022/08/05 09:02:24;;;;;;;1.88;0.60;;;21.80;99.90;;;;;;4827049;29;20053;-66
2022/08/05 09:04:50;;;;;;;8.48;1.17;;;22.00;99.90;;;;;;4811978;29;20076;-65
2022/08/05 09:07:16;;;;;;;32.25;2.67;;;22.10;99.90;;;;;;4810955;29;20216;-65
2022/08/05 09:09:41;;;;;;;5.13;1.15;;;22.20;99.90;;;;;;4827169;29;20057;-67
2022/08/05 09:12:08;;;;;;;1.67;0.80;;;22.30;99.90;;;;;;4826537;29;20060;-66
2022/08/05 09:14:37;;;;;;;1.35;0.80;;;22.30;99.90;;;;;;4841102;29;20068;-65
2022/08/05 09:17:07;;;;;;;5.47;0.77;;;22.30;99.90;;;;;;4826560;29;20057;-66
2022/08/05 09:19:33;;;;;;;2.90;0.80;;;22.10;99.90;;;;;;4842832;29;20101;-65
2022/08/05 09:21:59;;;;;;;1.52;0.65;;;22.20;99.90;;;;;;4841704;29;20424;-66
2022/08/05 09:24:25;;;;;;;1.38;0.80;;;22.30;99.90;;;;;;4842870;29;20124;-67
2022/08/05 09:26:55;;;;;;;1.13;0.82;;;22.50;99.90;;;;;;4826141;29;20058;-66
2022/08/05 09:29:20;;;;;;;1.02;0.68;;;22.50;99.90;;;;;;4840820;29;20085;-66
2022/08/05 09:32:06;;;;;;;1.30;0.52;;;22.30;99.90;;;;;;4842634;29;20081;-65
2022/08/05 09:34:54;;;;;;;1.35;0.70;;;22.00;99.90;;;;;;4826259;29;20064;-66
2022/08/05 09:37:25;;;;;;;0.88;0.63;;;22.10;99.90;;;;;;4841770;29;20058;-65
2022/08/05 09:39:51;;;;;;;1.77;0.60;;;22.10;99.90;;;;;;4842542;29;20057;-66
2022/08/05 09:42:21;;;;;;;2.13;0.68;;;22.20;99.90;;;;;;4840888;29;20138;-66
2022/08/05 09:44:49;;;;;;;2.42;0.70;;;22.20;96.30;;;;;;4842308;29;20068;-66
2022/08/05 09:47:19;;;;;;;1.42;0.50;;;22.20;99.90;;;;;;4842114;29;20056;-66
2022/08/05 09:49:49;;;;;;;4.95;0.88;;;22.20;99.90;;;;;;4841704;29;20062;-66
2022/08/05 09:52:23;;;;;;;1.23;0.70;;;22.30;99.90;;;;;;4825288;29;20104;-65
2022/08/05 09:55:07;;;;;;;2.38;0.50;;;22.40;99.40;;;;;;4825125;29;20056;-65
2022/08/05 09:57:48;;;;;;;2.17;0.40;;;22.50;78.50;;;;;;4819452;29;20479;-66
2022/08/05 10:00:50;;;;;;;1.02;0.50;;;22.50;77.90;;;;;;4842249;29;20053;-66
2022/08/05 10:03:15;;;;;;;2.35;0.60;;;22.60;76.70;;;;;;4841983;29;20061;-66
2022/08/05 10:05:41;;;;;;;0.40;0.40;;;22.70;89.50;;;;;;4823841;29;20504;-66
2022/08/05 10:08:19;;;;;;;2.17;0.65;;;22.70;90.30;;;;;;4842196;29;20389;-66
2022/08/05 10:11:51;;;;;;;2.40;0.70;;;22.70;88.90;;;;;;4810427;29;20105;-65
2022/08/05 10:14:32;;;;;;;2.90;0.70;;;22.60;78.70;;;;;;4840405;29;20567;-65
2022/08/05 10:17:47;;;;;;;1.60;0.60;;;22.50;85.20;;;;;;4841118;29;20314;-66
2022/08/05 10:20:55;;;;;;;1.75;0.47;;;22.70;86.50;;;;;;4838401;29;20178;-66
2022/08/05 10:23:55;;;;;;;1.05;0.50;;;22.50;70.20;;;;;;4820230;29;20412;-66
2022/08/05 10:26:22;;;;;;;0.97;0.50;;;22.30;66.60;;;;;;4823368;29;20050;-66
2022/08/05 10:29:13;;;;;;;1.80;0.50;;;22.40;80.70;;;;;;4823953;29;20089;-66
2022/08/05 10:31:45;;;;;;;2.87;0.60;;;22.50;67.80;;;;;;4815513;29;20054;-66
2022/08/05 10:34:20;;;;;;;2.10;0.60;;;22.60;67.70;;;;;;4814222;29;20053;-66
2022/08/05 10:36:48;;;;;;;1.33;0.43;;;22.60;70.50;;;;;;4823353;29;20492;-65
2022/08/05 10:42:22;;;;;;;1.10;0.40;;;22.70;66.80;;;;;;4806013;29;20061;-66
2022/08/05 10:48:39;;;;;;;0.30;0.30;;;22.60;69.60;;;;;;4805575;29;20089;-67
2022/08/05 10:51:41;;;;;;;0.82;0.50;;;22.60;62.90;;;;;;4804934;29;20115;-66
2022/08/05 10:54:06;;;;;;;0.68;0.35;;;22.60;61.80;;;;;;4818803;29;20137;-66
2022/08/05 10:57:01;;;;;;;0.88;0.40;;;22.50;64.90;;;;;;4822124;29;20133;-66
2022/08/05 10:59:42;;;;;;;0.30;0.20;;;22.60;59.90;;;;;;4823119;29;20050;-66
2022/08/05 11:02:13;;;;;;;1.27;0.40;;;22.60;60.00;;;;;;4803812;29;20051;-66
2022/08/05 11:04:46;;;;;;;0.82;0.40;;;22.70;60.00;;;;;;4823839;29;20408;-65
2022/08/05 11:07:17;;;;;;;2.08;0.50;;;22.50;57.70;;;;;;4822729;29;20054;-65
2022/08/05 11:09:48;;;;;;;0.38;0.20;;;22.60;58.90;;;;;;4823193;29;20497;-66
2022/08/05 11:12:23;;;;;;;0.57;0.32;;;22.70;57.80;;;;;;4805432;29;20585;-66
2022/08/05 11:15:08;;;;;;;0.65;0.38;;;22.70;58.10;;;;;;4823668;29;20050;-65
2022/08/05 11:17:37;;;;;;;0.57;0.30;;;22.80;56.10;;;;;;4823203;29;20053;-65
2022/08/05 11:20:27;;;;;;;1.83;0.40;;;22.70;56.80;;;;;;4822296;29;20059;-65
2022/08/05 11:23:28;;;;;;;1.98;0.50;;;22.70;55.80;;;;;;4826421;29;20104;-66
2022/08/05 11:26:08;;;;;;;0.57;0.30;;;22.70;52.40;;;;;;4841148;29;20049;-65
2022/08/05 11:28:34;;;;;;;0.80;0.25;;;22.70;51.90;;;;;;4840397;29;20402;-66
2022/08/05 11:31:02;;;;;;;1.38;0.40;;;22.70;54.00;;;;;;4841337;29;20065;-66
2022/08/05 11:33:50;;;;;;;0.45;0.32;;;22.90;54.30;;;;;;4840995;29;20129;-65
2022/08/05 11:36:18;;;;;;;3.22;0.43;;;23.00;51.80;;;;;;4833116;29;20062;-65
2022/08/05 11:38:46;;;;;;;1.17;0.20;;;23.10;52.00;;;;;;4844726;29;20242;-65
2022/08/05 11:41:13;;;;;;;0.90;0.35;;;23.10;51.70;;;;;;4843173;29;20057;-66
2022/08/05 11:43:54;;;;;;;1.40;0.30;;;23.20;51.80;;;;;;4844668;29;20521;-65
2022/08/05 11:46:34;;;;;;;0.98;0.30;;;23.30;51.50;;;;;;4844576;29;20110;-66
2022/08/05 11:49:50;;;;;;;0.50;0.35;;;23.20;50.40;;;;;;4843763;29;20053;-66
2022/08/05 11:52:24;;;;;;;0.60;0.30;;;23.10;49.50;;;;;;4836707;29;20728;-66
2022/08/05 11:54:51;;;;;;;1.42;0.30;;;23.10;51.40;;;;;;4844129;29;20058;-66
2022/08/05 11:57:17;;;;;;;0.68;0.30;;;23.10;52.70;;;;;;4812446;29;20054;-65
2022/08/05 11:59:46;;;;;;;2.92;0.38;;;23.10;52.90;;;;;;4842496;29;20041;-65
2022/08/05 12:02:12;;;;;;;0.63;0.35;;;23.10;53.00;;;;;;4801628;29;20565;-65
2022/08/05 12:04:40;;;;;;;0.93;0.30;;;23.00;52.80;;;;;;4842135;29;20042;-65
2022/08/05 12:07:36;;;;;;;1.63;0.88;;;23.00;53.20;;;;;;4842366;29;20053;-64
2022/08/05 12:10:33;;;;;;;0.30;0.30;;;23.10;53.60;;;;;;4844023;29;20110;-65
2022/08/05 12:13:25;;;;;;;1.08;0.40;;;23.10;53.60;;;;;;4836326;29;20061;-65
2022/08/05 12:16:38;;;;;;;0.47;0.40;;;23.00;54.30;;;;;;4842252;29;20046;-65
2022/08/05 12:19:25;;;;;;;0.30;0.25;;;23.00;55.60;;;;;;4843647;29;20495;-65
2022/08/05 12:21:51;;;;;;;0.45;0.30;;;23.20;55.90;;;;;;4843450;29;20054;-65
2022/08/05 12:24:59;;;;;;;2.53;0.60;;;23.10;55.70;;;;;;4842425;29;20133;-65
2022/08/05 12:27:27;;;;;;;1.77;0.40;;;23.10;55.80;;;;;;4842012;29;20050;-65
2022/08/05 12:30:06;;;;;;;1.30;0.30;;;23.00;56.10;;;;;;4834090;29;20092;-66
2022/08/05 12:32:34;;;;;;;0.60;0.30;;;23.00;55.80;;;;;;4843755;29;20056;-65
2022/08/05 12:35:03;;;;;;;1.13;0.30;;;22.90;56.50;;;;;;4843699;29;20054;-66
2022/08/05 12:37:29;;;;;;;1.80;0.70;;;23.00;57.20;;;;;;4811641;29;20061;-66
2022/08/05 12:40:26;;;;;;;10.18;1.80;;;23.00;57.40;;;;;;4843158;29;20145;-66
2022/08/05 12:42:57;;;;;;;1.00;0.40;;;22.90;57.00;;;;;;4826274;29;20449;-66
2022/08/05 12:45:23;;;;;;;0.97;0.30;;;22.70;57.90;;;;;;4842266;29;20056;-66
2022/08/05 12:47:48;;;;;;;1.38;0.30;;;22.70;58.80;;;;;;4847873;29;20388;-66
2022/08/05 12:50:39;;;;;;;3.53;0.30;;;22.60;60.20;;;;;;4861482;29;20407;-65
2022/08/05 12:53:04;;;;;;;1.25;0.28;;;22.50;60.40;;;;;;4861456;29;20049;-63
2022/08/05 12:55:30;;;;;;;1.70;0.40;;;22.50;60.30;;;;;;4861568;29;20117;-64
2022/08/05 12:57:57;;;;;;;2.17;0.60;;;22.70;60.30;;;;;;4841163;29;20062;-63
2022/08/05 13:00:26;;;;;;;3.20;0.47;;;22.80;60.00;;;;;;4842233;29;20049;-63
2022/08/05 13:02:55;;;;;;;0.73;0.30;;;22.70;60.70;;;;;;4841780;29;20095;-64
2022/08/05 13:05:48;;;;;;;1.05;0.38;;;22.50;60.30;;;;;;4841652;29;20045;-64
2022/08/05 13:09:05;;;;;;;1.75;0.40;;;22.40;59.70;;;;;;4830098;29;20441;-64
2022/08/05 13:11:31;;;;;;;0.65;0.40;;;22.40;59.70;;;;;;4837611;29;20145;-65
2022/08/05 13:13:57;;;;;;;1.75;0.40;;;22.40;59.80;;;;;;4828642;29;20113;-65
2022/08/05 13:16:22;;;;;;;3.97;0.50;;;22.50;59.20;;;;;;4841848;29;20397;-65
2022/08/05 13:18:58;;;;;;;3.25;0.50;;;22.40;58.10;;;;;;4842693;29;20058;-65
2022/08/05 13:21:23;;;;;;;1.83;0.55;;;22.40;55.80;;;;;;4842527;29;20150;-65
2022/08/05 13:23:49;;;;;;;0.77;0.50;;;22.20;56.40;;;;;;4841813;29;20136;-65
2022/08/05 13:26:14;;;;;;;0.93;0.30;;;22.00;56.10;;;;;;4841949;29;20045;-65
2022/08/05 13:28:40;;;;;;;0.50;0.40;;;22.20;56.60;;;;;;4826583;29;20108;-64
2022/08/05 13:39:45;;;;;;;0.95;0.47;;;22.20;55.70;;;;;;4842132;29;20110;-65
2022/08/05 13:42:10;;;;;;;1.27;0.43;;;22.20;53.80;;;;;;4826385;29;20058;-65
2022/08/05 14:25:30;;;;;;;1.30;0.30;;;21.50;59.10;;;;;;4859986;29;20098;-65
2022/08/05 14:48:17;;;;;;;1.33;0.45;;;21.30;63.60;;;;;;4841703;29;20037;-64